Terminal Aerodrome Forecast
Issued by NWS

Home | Current Version | Previous Version | Text Only | Print | Product List | Glossary On
Versions: 1 2 3 4 5 6 7 8 9 10 11 12 13 14
979
FTUS45 KVEF 252320
TAFHND
TAF
KHND 252320Z 2600/2624 02008KT P6SM BKN180
     FM260400 18007KT P6SM BKN180
     FM261500 VRB05KT P6SM SCT100 BKN150
     FM262300 21009G15KT P6SM FEW100=

USA.gov is the U.S. government's official web portal to all federal, state and local government web resources and services.